EHRD/RTM METAR and TAF weather

Enter ICAO airport designator
Station Type Date Time Source
EHRD METAR 2024/06/14 02:55 UTC NOAA

EHRD 140255Z AUTO 18008KT 150V210 9999 NSC 14/11 Q1007 NOSIG


Station Type Date Time Source
EHRD Decoded METAR 2024/06/14 02:55 UTC NOAA

Rotterdam Airport Zestienhoven, Netherlands (EHRD) 51-57N 004-27E -4M
Jun 13, 2024 - 10:55 PM EDT / 2024.06.14 0255 UTC
Wind: from the S (180 degrees) at 9 MPH (8 KT) (direction variable):0
Visibility: greater than 7 mile(s):0
Temperature: 57 F (14 C)
Dew Point: 51 F (11 C)
Relative Humidity: 82%
Pressure (altimeter): 29.74 in. Hg (1007 hPa)
ob: EHRD 140255Z AUTO 18008KT 150V210 9999 NSC 14/11 Q1007 NOSIG
cycle: 3

Station Type Date Time Source
EHRD TAF 2024/06/13 18:27 UTC NOAA